createdAt,value
2023-02-25T00:01:36.292Z,97808.56
2023-02-25T00:04:03.236Z,97823.44
2023-02-25T00:06:30.034Z,97815.78
2023-02-25T00:08:56.906Z,97817.38
2023-02-25T00:11:26.066Z,97817.97
2023-02-25T00:13:53.201Z,97802.91
2023-02-25T00:16:22.608Z,97818.63
2023-02-25T00:18:55.581Z,97823.72
2023-02-25T00:21:23.503Z,97824.63
2023-02-25T00:23:53.570Z,97819.47
2023-02-25T00:26:21.058Z,97802.03
2023-02-25T00:28:48.418Z,97817.63
2023-02-25T00:31:19.896Z,97804.31
2023-02-25T00:33:47.500Z,97802.50
2023-02-25T00:36:26.790Z,97808.91
2023-02-25T00:38:57.198Z,97807.97
2023-02-25T00:41:28.711Z,97817.97
2023-02-25T00:43:58.907Z,97818.78
2023-02-25T00:46:27.971Z,97817.22
2023-02-25T00:48:54.832Z,97833.44
2023-02-25T00:51:26.830Z,97816.22
2023-02-25T00:53:56.404Z,97831.44
2023-02-25T00:56:25.392Z,97813.47
2023-02-25T00:58:53.250Z,97821.63
2023-02-25T01:01:27.239Z,97823.13
2023-02-25T01:03:56.539Z,97826.59
2023-02-25T01:06:29.037Z,97830.19
2023-02-25T01:08:57.043Z,97834.69
2023-02-25T01:11:29.256Z,97841.41
2023-02-25T01:14:03.092Z,97845.66
2023-02-25T01:16:31.889Z,97847.47
2023-02-25T01:19:05.842Z,97848.47
2023-02-25T01:21:42.792Z,97833.06
2023-02-25T01:24:23.228Z,97830.94
2023-02-25T01:26:53.785Z,97837.75
2023-02-25T01:29:30.361Z,97836.19
2023-02-25T01:32:00.744Z,97838.84
2023-02-25T01:34:29.086Z,97844.91
2023-02-25T01:36:56.713Z,97829.91
2023-02-25T01:39:26.542Z,97861.19
2023-02-25T01:41:56.756Z,97858.69
2023-02-25T01:44:31.547Z,97873.00
2023-02-25T01:46:58.810Z,97874.22
2023-02-25T01:49:35.810Z,97875.72
2023-02-25T01:52:21.364Z,97851.19
2023-02-25T01:54:54.229Z,97845.03
2023-02-25T01:57:21.808Z,97865.16
2023-02-25T01:59:50.503Z,97862.31
2023-02-25T02:02:21.588Z,97853.25
2023-02-25T02:04:52.407Z,97851.53
2023-02-25T02:07:20.955Z,97861.22
2023-02-25T02:09:57.182Z,97851.84
2023-02-25T02:12:28.797Z,97827.47
2023-02-25T02:14:57.721Z,97853.03
2023-02-25T02:17:38.556Z,97860.97
2023-02-25T02:20:13.298Z,97862.50
2023-02-25T02:22:53.124Z,97859.25
2023-02-25T02:25:34.859Z,97866.13
2023-02-25T02:28:38.073Z,97841.19
2023-02-25T02:31:35.980Z,97879.25
2023-02-25T02:34:46.835Z,97884.25
2023-02-25T02:37:19.911Z,97890.16
2023-02-25T02:40:15.229Z,97879.94
2023-02-25T02:43:11.866Z,97877.75
2023-02-25T02:46:00.113Z,97877.06
2023-02-25T02:48:36.732Z,97874.28
2023-02-25T02:51:12.381Z,97880.47
2023-02-25T02:53:48.215Z,97886.69
2023-02-25T02:56:18.782Z,97876.56
2023-02-25T02:58:53.007Z,97878.28
2023-02-25T03:01:29.806Z,97869.84
2023-02-25T03:04:03.832Z,97891.63
2023-02-25T03:06:34.912Z,97880.66
2023-02-25T03:09:16.747Z,97891.63
2023-02-25T03:11:44.041Z,97893.38
2023-02-25T03:14:12.926Z,97901.69
2023-02-25T03:17:43.201Z,97882.75
2023-02-25T03:20:22.630Z,97892.81
2023-02-25T03:22:53.743Z,97887.56
2023-02-25T03:25:31.695Z,97883.56
2023-02-25T03:28:32.985Z,97876.44
2023-02-25T03:31:22.386Z,97893.00
2023-02-25T03:33:56.781Z,97885.50
2023-02-25T03:36:32.610Z,97884.41
2023-02-25T03:39:25.116Z,97902.56
2023-02-25T03:41:55.745Z,97899.06
2023-02-25T03:44:45.498Z,97909.53
2023-02-25T03:47:14.249Z,97904.00
2023-02-25T03:50:06.945Z,97892.53
2023-02-25T03:52:33.837Z,97895.84
2023-02-25T03:55:02.091Z,97908.66
2023-02-25T03:57:41.070Z,97906.47
2023-02-25T04:00:19.079Z,97913.88
2023-02-25T04:02:47.460Z,97903.81
2023-02-25T04:05:16.300Z,97892.47
2023-02-25T04:07:43.202Z,97920.94
2023-02-25T04:10:13.159Z,97935.31
2023-02-25T04:12:40.080Z,97908.41
2023-02-25T04:15:08.585Z,97948.50
2023-02-25T04:17:37.141Z,97937.59
2023-02-25T04:20:05.552Z,97945.81
2023-02-25T04:22:33.514Z,97940.50
2023-02-25T04:25:00.606Z,97953.28
2023-02-25T04:27:27.444Z,97948.97
2023-02-25T04:29:54.297Z,97947.22
2023-02-25T04:32:21.234Z,97947.28
2023-02-25T04:34:48.181Z,97918.38
2023-02-25T04:37:15.118Z,97952.34
2023-02-25T04:39:42.055Z,97935.03
2023-02-25T04:42:09.014Z,97948.13
2023-02-25T04:44:36.025Z,97946.59
2023-02-25T04:47:02.918Z,97942.63
2023-02-25T04:49:29.735Z,97931.84
2023-02-25T04:51:56.787Z,97943.22
2023-02-25T04:54:23.639Z,97956.38
2023-02-25T04:56:50.468Z,97917.56
2023-02-25T04:59:17.446Z,97960.78
2023-02-25T05:01:44.343Z,97958.06
2023-02-25T05:04:11.308Z,97921.19
2023-02-25T05:06:39.232Z,97958.81
2023-02-25T05:09:06.482Z,97958.34
2023-02-25T05:11:34.207Z,97956.03
2023-02-25T05:14:01.041Z,97959.34
2023-02-25T05:16:28.073Z,97961.25
2023-02-25T05:18:55.470Z,97961.31
2023-02-25T05:21:25.692Z,97953.03
2023-02-25T05:23:53.956Z,97963.41
2023-02-25T05:26:24.128Z,97962.59
2023-02-25T05:28:58.530Z,97961.09
2023-02-25T05:31:26.108Z,97954.19
2023-02-25T05:33:53.205Z,97953.13
2023-02-25T05:36:20.603Z,97956.63
2023-02-25T05:38:48.051Z,97950.78
2023-02-25T05:41:15.988Z,97950.78
2023-02-25T05:43:45.165Z,97932.16
2023-02-25T05:46:13.930Z,97962.44
2023-02-25T05:48:45.937Z,97966.69
2023-02-25T05:51:17.030Z,97964.09
2023-02-25T05:53:44.834Z,97967.44
2023-02-25T05:56:15.189Z,97977.28
2023-02-25T05:58:42.409Z,97977.28
2023-02-25T06:01:15.892Z,97964.72
2023-02-25T06:03:45.255Z,97978.34
2023-02-25T06:06:13.449Z,97974.84
2023-02-25T06:08:42.016Z,97980.06
2023-02-25T06:11:09.173Z,97963.66
2023-02-25T06:13:36.070Z,97960.00
2023-02-25T06:16:05.068Z,97986.81
2023-02-25T06:18:36.709Z,97982.56
2023-02-25T06:21:10.951Z,97994.13
2023-02-25T06:23:39.753Z,97995.66
2023-02-25T06:26:08.427Z,97999.16
2023-02-25T06:28:36.137Z,98000.13
2023-02-25T06:31:03.263Z,97998.16
2023-02-25T06:33:31.542Z,98007.50
2023-02-25T06:35:59.022Z,98009.06
2023-02-25T06:38:26.130Z,98006.66
2023-02-25T06:40:53.056Z,98004.41
2023-02-25T06:43:19.971Z,98009.84
2023-02-25T06:45:46.854Z,98012.31
2023-02-25T06:48:13.751Z,98002.50
2023-02-25T06:50:41.727Z,98000.75
2023-02-25T06:53:09.309Z,97993.34
2023-02-25T06:55:39.445Z,97994.81
2023-02-25T06:58:06.667Z,97985.75
2023-02-25T07:00:33.628Z,97975.22
2023-02-25T07:03:03.030Z,97992.22
2023-02-25T07:05:29.978Z,98005.94
2023-02-25T07:07:56.968Z,97972.69
2023-02-25T07:10:23.845Z,98003.09
2023-02-25T07:12:52.867Z,98017.84
2023-02-25T07:15:21.616Z,98009.50
2023-02-25T07:17:48.783Z,98006.34
2023-02-25T07:20:16.044Z,98007.69
2023-02-25T07:22:42.992Z,98013.91
2023-02-25T07:25:13.454Z,98020.34
2023-02-25T07:27:44.987Z,98025.25
2023-02-25T07:30:13.301Z,98019.22
2023-02-25T07:32:41.747Z,98022.28
2023-02-25T07:35:10.375Z,98012.78
2023-02-25T07:37:37.758Z,98019.31
2023-02-25T07:40:16.994Z,98024.38
2023-02-25T07:42:43.991Z,98007.72
2023-02-25T07:45:11.478Z,98023.69
2023-02-25T07:47:39.129Z,97990.56
2023-02-25T07:50:10.276Z,98020.16
2023-02-25T07:52:38.712Z,98021.91
2023-02-25T07:55:07.206Z,98028.03
2023-02-25T07:57:35.677Z,98016.75
2023-02-25T08:00:04.929Z,98018.44
2023-02-25T08:02:31.786Z,98027.88
2023-02-25T08:05:00.486Z,98021.22
2023-02-25T08:07:28.240Z,98016.91
2023-02-25T08:09:55.211Z,98019.41
2023-02-25T08:12:22.152Z,98027.47
2023-02-25T08:14:49.056Z,98018.16
2023-02-25T08:17:15.956Z,98028.16
2023-02-25T08:19:43.429Z,98024.47
2023-02-25T08:22:11.907Z,98027.50
2023-02-25T08:24:39.705Z,98021.50
2023-02-25T08:27:08.647Z,98025.72
2023-02-25T08:29:38.627Z,98035.69
2023-02-25T08:32:09.226Z,98016.06
2023-02-25T08:34:36.553Z,98041.56
2023-02-25T08:37:03.448Z,98053.06
2023-02-25T08:39:31.127Z,98043.72
2023-02-25T08:41:57.967Z,98032.69
2023-02-25T08:44:24.809Z,98042.53
2023-02-25T08:46:51.647Z,98034.06
2023-02-25T08:49:18.451Z,98033.88
2023-02-25T08:51:45.295Z,98022.91
2023-02-25T08:54:14.146Z,98026.81
2023-02-25T08:56:44.157Z,98021.25
2023-02-25T08:59:14.138Z,98032.38
2023-02-25T09:01:48.290Z,98017.81
2023-02-25T09:04:19.384Z,98021.25
2023-02-25T09:06:49.538Z,98018.53
2023-02-25T09:09:19.019Z,98024.78
2023-02-25T09:11:47.848Z,98030.13
2023-02-25T09:14:15.438Z,98007.44
2023-02-25T09:16:42.412Z,98027.88
2023-02-25T09:19:10.783Z,98027.72
2023-02-25T09:21:40.369Z,98033.56
2023-02-25T09:24:08.499Z,98029.31
2023-02-25T09:26:35.386Z,98027.88
2023-02-25T09:29:04.828Z,98033.09
2023-02-25T09:31:33.639Z,98027.03
2023-02-25T09:34:04.626Z,98014.31
2023-02-25T09:36:32.325Z,98028.41
2023-02-25T09:38:59.545Z,98010.91
2023-02-25T09:42:00.392Z,98018.13
2023-02-25T09:44:31.788Z,98013.03
2023-02-25T09:47:20.985Z,98015.69
2023-02-25T09:50:14.788Z,98020.41
2023-02-25T09:53:40.292Z,98013.38
2023-02-25T09:56:08.396Z,98008.94
2023-02-25T09:58:46.011Z,98005.13
2023-02-25T10:01:36.253Z,98008.31
2023-02-25T10:04:17.160Z,97993.75
2023-02-25T10:06:48.642Z,98001.94
2023-02-25T10:09:24.895Z,97982.88
2023-02-25T10:12:04.789Z,98001.22
2023-02-25T10:14:52.880Z,97996.69
2023-02-25T10:17:29.936Z,97996.53
2023-02-25T10:20:30.920Z,98002.56
2023-02-25T10:23:09.302Z,98000.75
2023-02-25T10:25:51.350Z,97997.28
2023-02-25T10:28:20.205Z,98003.66
2023-02-25T10:30:52.489Z,98001.06
2023-02-25T10:33:25.897Z,98003.66
2023-02-25T10:36:03.153Z,97982.88
2023-02-25T10:38:30.065Z,97992.13
2023-02-25T10:40:59.180Z,97980.47
2023-02-25T10:43:27.504Z,97992.66
2023-02-25T10:46:09.648Z,97994.84
2023-02-25T10:48:38.300Z,97986.41
2023-02-25T10:51:12.656Z,97994.72
2023-02-25T10:53:56.895Z,97975.25
2023-02-25T10:56:45.907Z,97989.31
2023-02-25T10:59:38.463Z,97979.72
2023-02-25T11:02:32.564Z,97972.22
2023-02-25T11:04:59.614Z,97974.84
2023-02-25T11:07:40.000Z,97988.63
2023-02-25T11:10:21.370Z,97974.56
2023-02-25T11:12:57.830Z,97975.25
2023-02-25T11:15:44.876Z,97987.88
2023-02-25T11:18:28.063Z,97982.66
2023-02-25T11:20:58.869Z,97980.75
2023-02-25T11:23:38.689Z,97969.41
2023-02-25T11:26:07.075Z,97968.78
2023-02-25T11:28:40.254Z,97978.41
2023-02-25T11:31:34.399Z,97964.53
2023-02-25T11:34:06.588Z,97948.81
2023-02-25T11:36:38.969Z,97964.19
2023-02-25T11:39:22.012Z,97973.56
2023-02-25T11:42:00.350Z,97960.09
2023-02-25T11:44:42.026Z,97968.78
2023-02-25T11:47:38.496Z,97970.78
2023-02-25T11:50:20.140Z,97966.31
2023-02-25T11:53:08.150Z,97954.88
2023-02-25T11:56:29.032Z,97972.81
2023-02-25T11:59:01.641Z,97966.66
2023-02-25T12:02:00.956Z,97971.22
2023-02-25T12:05:03.262Z,97967.97
2023-02-25T12:08:05.077Z,97971.63
2023-02-25T12:11:05.150Z,97961.97
2023-02-25T12:13:55.977Z,97970.94
2023-02-25T12:17:06.267Z,97963.47
2023-02-25T12:20:22.955Z,97956.63
2023-02-25T12:23:14.944Z,97958.34
2023-02-25T12:26:18.507Z,97958.44
2023-02-25T12:29:11.830Z,97943.44
2023-02-25T12:32:35.596Z,97965.03
2023-02-25T12:36:03.944Z,97943.69
2023-02-25T12:38:47.607Z,97967.44
2023-02-25T12:41:37.232Z,97957.91
2023-02-25T12:44:45.659Z,97964.53
2023-02-25T12:48:04.017Z,97966.59
2023-02-25T12:50:57.374Z,97976.81
2023-02-25T12:54:00.953Z,97959.13
2023-02-25T12:56:54.251Z,97965.19
2023-02-25T12:59:53.671Z,97953.66
2023-02-25T13:02:58.370Z,97964.03
2023-02-25T13:06:14.855Z,97969.41
2023-02-25T13:09:04.833Z,97976.63
2023-02-25T13:12:11.377Z,97954.41
2023-02-25T13:15:23.426Z,97960.75
2023-02-25T13:18:22.559Z,97962.38
2023-02-25T13:21:19.714Z,97948.06
2023-02-25T13:24:06.379Z,97955.63
2023-02-25T13:26:59.745Z,97958.97
2023-02-25T13:30:04.986Z,97956.00
2023-02-25T13:33:05.900Z,97938.06
2023-02-25T13:36:07.977Z,97971.44
2023-02-25T13:39:14.718Z,97966.47
2023-02-25T13:42:12.543Z,97973.78
2023-02-25T13:45:31.829Z,97968.34
2023-02-25T13:48:35.178Z,97959.72
2023-02-25T13:51:46.118Z,97956.09
2023-02-25T13:54:46.638Z,97956.97
2023-02-25T13:57:50.394Z,97937.84
2023-02-25T14:00:51.466Z,97958.78
2023-02-25T14:04:09.181Z,97957.91
2023-02-25T14:07:00.689Z,97946.75
2023-02-25T14:09:43.034Z,97951.56
2023-02-25T14:12:46.554Z,97956.53
2023-02-25T14:15:59.859Z,97952.97
2023-02-25T14:19:02.134Z,97948.38
2023-02-25T14:22:00.488Z,97955.03
2023-02-25T14:24:30.239Z,97950.63
2023-02-25T14:27:08.690Z,97958.28
2023-02-25T14:30:25.820Z,97953.22
2023-02-25T14:33:28.982Z,97952.16
2023-02-25T14:36:31.885Z,97950.28
2023-02-25T14:39:27.539Z,97948.50
2023-02-25T14:42:20.143Z,97949.75
2023-02-25T14:45:14.108Z,97947.81
2023-02-25T14:48:41.140Z,97931.72
2023-02-25T14:52:11.727Z,97937.91
2023-02-25T14:54:57.064Z,97940.22
2023-02-25T14:57:51.515Z,97953.84
2023-02-25T15:00:47.590Z,97949.72
2023-02-25T15:03:30.845Z,97951.41
2023-02-25T15:06:22.396Z,97944.41
2023-02-25T15:09:18.522Z,97948.53
2023-02-25T15:12:16.698Z,97961.13
2023-02-25T15:15:19.986Z,97958.16
2023-02-25T15:18:02.646Z,97959.00
2023-02-25T15:20:29.314Z,97963.31
2023-02-25T15:23:17.707Z,97959.47
2023-02-25T15:26:06.929Z,97965.16
2023-02-25T15:28:37.166Z,97966.38
2023-02-25T15:31:30.316Z,97954.25
2023-02-25T15:34:21.731Z,97971.44
2023-02-25T15:36:51.825Z,97980.06
2023-02-25T15:39:40.582Z,97979.25
2023-02-25T15:42:11.983Z,97984.50
2023-02-25T15:44:44.373Z,97962.81
2023-02-25T15:47:29.569Z,97966.41
2023-02-25T15:49:57.955Z,97969.50
2023-02-25T15:52:55.506Z,97982.72
2023-02-25T15:55:46.020Z,97986.22
2023-02-25T15:58:24.892Z,97984.41
2023-02-25T16:01:02.512Z,97981.06
2023-02-25T16:03:32.054Z,97978.50
2023-02-25T16:06:05.449Z,97979.25
2023-02-25T16:08:42.725Z,97975.00
2023-02-25T16:11:33.599Z,97982.72
2023-02-25T16:14:10.721Z,98006.22
2023-02-25T16:16:47.058Z,97992.88
2023-02-25T16:19:19.646Z,98031.50
2023-02-25T16:21:52.806Z,98034.38
2023-02-25T16:24:20.052Z,98039.34
2023-02-25T16:27:12.708Z,98022.09
2023-02-25T16:30:17.814Z,98048.75
2023-02-25T16:33:45.012Z,98051.09
2023-02-25T16:36:41.480Z,98020.13
2023-02-25T16:39:24.936Z,98038.38
2023-02-25T16:41:52.812Z,98075.66
2023-02-25T16:44:25.903Z,98076.59
2023-02-25T16:46:55.107Z,98074.94
2023-02-25T16:49:38.990Z,98083.06
2023-02-25T16:52:07.446Z,98063.94
2023-02-25T16:54:38.196Z,98077.22
2023-02-25T16:57:09.402Z,98032.13
2023-02-25T16:59:38.617Z,98065.34
2023-02-25T17:02:17.580Z,98078.25
2023-02-25T17:04:54.429Z,98073.28
2023-02-25T17:07:27.831Z,98090.97
2023-02-25T17:10:00.768Z,98087.47
2023-02-25T17:12:45.400Z,98095.16
2023-02-25T17:15:20.282Z,98095.97
2023-02-25T17:17:54.094Z,98093.88
2023-02-25T17:20:24.777Z,98097.00
2023-02-25T17:22:52.474Z,98078.56
2023-02-25T17:25:20.540Z,98103.88
2023-02-25T17:27:50.207Z,98092.03
2023-02-25T17:30:47.885Z,98107.41
2023-02-25T17:33:26.365Z,98102.91
2023-02-25T17:35:58.807Z,98088.63
2023-02-25T17:38:26.270Z,98095.00
2023-02-25T17:40:55.256Z,98105.84
2023-02-25T17:43:37.771Z,98111.06
2023-02-25T17:46:36.041Z,98130.53
2023-02-25T17:49:18.637Z,98149.03
2023-02-25T17:51:46.482Z,98144.88
2023-02-25T17:54:20.493Z,98203.84
2023-02-25T17:57:00.227Z,98200.78
2023-02-25T17:59:42.478Z,98170.63
2023-02-25T18:02:34.193Z,98200.53
2023-02-25T18:05:13.316Z,98210.38
2023-02-25T18:07:42.583Z,98217.84
2023-02-25T18:10:33.273Z,98221.34
2023-02-25T18:13:02.932Z,98221.28
2023-02-25T18:15:34.319Z,98225.75
2023-02-25T18:18:05.301Z,98221.81
2023-02-25T18:20:42.222Z,98221.00
2023-02-25T18:23:24.802Z,98226.84
2023-02-25T18:26:13.072Z,98229.44
2023-02-25T18:28:40.060Z,98238.78
2023-02-25T18:31:08.139Z,98219.09
2023-02-25T18:33:35.268Z,98206.91
2023-02-25T18:36:06.175Z,98211.06
2023-02-25T18:38:33.818Z,98215.44
2023-02-25T18:41:02.765Z,98162.84
2023-02-25T18:43:34.313Z,98194.50
2023-02-25T18:46:01.765Z,98188.56
2023-02-25T18:48:28.627Z,98224.03
2023-02-25T18:50:56.452Z,98219.69
2023-02-25T18:53:25.332Z,98232.47
2023-02-25T18:55:53.837Z,98230.06
2023-02-25T18:58:21.836Z,98221.00
2023-02-25T19:00:53.568Z,98239.00
2023-02-25T19:03:32.872Z,98245.09
2023-02-25T19:06:00.459Z,98243.44
2023-02-25T19:08:27.319Z,98249.38
2023-02-25T19:10:54.553Z,98241.00
2023-02-25T19:13:43.202Z,98212.59
2023-02-25T19:16:10.276Z,98235.28
2023-02-25T19:18:37.673Z,98252.97
2023-02-25T19:21:06.827Z,98250.06
2023-02-25T19:23:34.039Z,98256.13
2023-02-25T19:26:02.234Z,98273.69
2023-02-25T19:28:29.348Z,98263.22
2023-02-25T19:30:56.180Z,98262.50
2023-02-25T19:33:23.144Z,98265.56
2023-02-25T19:35:50.191Z,98273.22
2023-02-25T19:38:19.349Z,98264.22
2023-02-25T19:40:47.563Z,98274.03
2023-02-25T19:43:15.359Z,98280.72
2023-02-25T19:45:42.757Z,98278.00
2023-02-25T19:48:10.673Z,98269.81
2023-02-25T19:50:41.299Z,98285.38
2023-02-25T19:53:09.094Z,98293.16
2023-02-25T19:55:35.981Z,98307.78
2023-02-25T19:58:03.029Z,98265.44
2023-02-25T20:00:29.863Z,98304.78
2023-02-25T20:02:57.080Z,98303.94
2023-02-25T20:05:24.757Z,98313.66
2023-02-25T20:07:52.157Z,98303.59
2023-02-25T20:10:19.503Z,98304.00
2023-02-25T20:12:48.171Z,98328.44
2023-02-25T20:15:15.971Z,98324.00
2023-02-25T20:17:45.327Z,98322.53
2023-02-25T20:20:15.477Z,98329.53
2023-02-25T20:22:42.880Z,98340.66
2023-02-25T20:25:11.005Z,98330.31
2023-02-25T20:27:39.862Z,98332.03
2023-02-25T20:30:08.134Z,98325.06
2023-02-25T20:32:35.173Z,98346.81
2023-02-25T20:35:02.926Z,98343.25
2023-02-25T20:37:37.121Z,98337.47
2023-02-25T20:40:08.048Z,98347.78
2023-02-25T20:42:35.406Z,98357.28
2023-02-25T20:45:02.691Z,98356.34
2023-02-25T20:47:37.248Z,98349.72
2023-02-25T20:50:07.625Z,98333.59
2023-02-25T20:52:34.625Z,98343.56
2023-02-25T20:55:01.436Z,98356.09
2023-02-25T20:57:28.623Z,98358.28
2023-02-25T20:59:55.564Z,98367.59
2023-02-25T21:02:23.128Z,98369.06
2023-02-25T21:04:50.630Z,98369.13
2023-02-25T21:07:17.479Z,98367.41
2023-02-25T21:09:44.517Z,98328.75
2023-02-25T21:12:11.677Z,98366.72
2023-02-25T21:14:38.505Z,98367.28
2023-02-25T21:17:09.279Z,98369.72
2023-02-25T21:19:38.605Z,98379.31
2023-02-25T21:22:07.212Z,98354.19
2023-02-25T21:24:34.662Z,98377.66
2023-02-25T21:27:02.505Z,98343.31
2023-02-25T21:29:29.861Z,98382.53
2023-02-25T21:31:56.838Z,98381.91
2023-02-25T21:34:23.763Z,98366.59
2023-02-25T21:36:50.665Z,98386.34
2023-02-25T21:39:18.056Z,98373.75
2023-02-25T21:41:45.119Z,98386.34
2023-02-25T21:44:12.601Z,98393.03
2023-02-25T21:46:40.350Z,98350.28
2023-02-25T21:49:07.434Z,98388.78
2023-02-25T21:51:34.292Z,98400.94
2023-02-25T21:54:01.734Z,98402.72
2023-02-25T21:56:29.943Z,98409.72
2023-02-25T21:59:00.194Z,98398.00
2023-02-25T22:01:31.081Z,98418.41
2023-02-25T22:03:58.506Z,98417.69
2023-02-25T22:06:27.824Z,98420.38
2023-02-25T22:08:55.889Z,98422.94
2023-02-25T22:11:29.433Z,98408.84
2023-02-25T22:13:58.520Z,98372.28
2023-02-25T22:16:26.438Z,98404.50
2023-02-25T22:18:53.612Z,98417.19
2023-02-25T22:21:27.762Z,98415.66
2023-02-25T22:23:57.783Z,98411.50
2023-02-25T22:26:31.736Z,98419.88
2023-02-25T22:29:04.029Z,98419.88
2023-02-25T22:31:32.531Z,98420.72
2023-02-25T22:33:59.803Z,98419.75
2023-02-25T22:36:27.032Z,98420.00
2023-02-25T22:38:54.563Z,98423.44
2023-02-25T22:41:27.931Z,98420.22
2023-02-25T22:43:55.291Z,98421.22
2023-02-25T22:46:27.180Z,98420.47
2023-02-25T22:48:54.894Z,98424.94
2023-02-25T22:51:36.176Z,98437.91
2023-02-25T22:54:04.759Z,98437.31
2023-02-25T22:56:31.895Z,98436.72
2023-02-25T22:58:58.838Z,98435.91
2023-02-25T23:01:26.824Z,98440.28
2023-02-25T23:03:55.936Z,98405.94
2023-02-25T23:06:40.819Z,98431.78
2023-02-25T23:09:09.708Z,98449.53
2023-02-25T23:11:36.559Z,98425.06
2023-02-25T23:14:05.021Z,98442.84
2023-02-25T23:16:40.297Z,98448.06
2023-02-25T23:19:11.069Z,98449.00
2023-02-25T23:21:38.769Z,98445.56
2023-02-25T23:24:07.756Z,98435.59
2023-02-25T23:26:40.237Z,98443.78
2023-02-25T23:29:10.548Z,98445.56
2023-02-25T23:31:43.415Z,98450.63
2023-02-25T23:34:15.183Z,98454.97
2023-02-25T23:36:43.996Z,98450.63
2023-02-25T23:39:13.111Z,98447.31
2023-02-25T23:41:40.311Z,98455.09
2023-02-25T23:44:09.119Z,98420.66
2023-02-25T23:46:36.724Z,98447.25
2023-02-25T23:49:07.155Z,98449.91
2023-02-25T23:51:36.051Z,98461.25
2023-02-25T23:54:06.129Z,98463.06
2023-02-25T23:56:34.322Z,98456.13
2023-02-25T23:59:01.420Z,98463.06
